createdAt,value
2022-07-28T00:01:19.928Z,26.48
2022-07-28T00:03:49.387Z,20.43
2022-07-28T00:06:17.483Z,23.35
2022-07-28T00:08:45.683Z,21.05
2022-07-28T00:11:14.185Z,24.42
2022-07-28T00:13:42.324Z,16.85
2022-07-28T00:16:10.261Z,18.62
2022-07-28T00:18:38.650Z,20.30
2022-07-28T00:21:06.610Z,20.92
2022-07-28T00:23:38.799Z,19.33
2022-07-28T00:26:12.208Z,20.23
2022-07-28T00:28:39.972Z,21.60
2022-07-28T00:31:10.890Z,16.62
2022-07-28T00:33:40.395Z,23.48
2022-07-28T00:36:11.536Z,17.35
2022-07-28T00:38:44.065Z,18.70
2022-07-28T00:41:13.732Z,24.27
2022-07-28T00:43:44.077Z,21.55
2022-07-28T00:46:13.770Z,22.05
2022-07-28T00:48:44.846Z,26.42
2022-07-28T00:51:17.064Z,27.60
2022-07-28T00:53:46.047Z,28.87
2022-07-28T00:56:15.215Z,27.50
2022-07-28T00:58:43.620Z,29.30
2022-07-28T01:01:16.174Z,29.30
2022-07-28T01:03:47.775Z,26.05
2022-07-28T01:06:21.400Z,23.27
2022-07-28T01:08:52.174Z,26.08
2022-07-28T01:11:43.397Z,25.33
2022-07-28T01:14:19.795Z,22.92
2022-07-28T01:16:58.878Z,19.95
2022-07-28T01:19:51.070Z,24.40
2022-07-28T01:22:23.494Z,26.00
2022-07-28T01:28:15.758Z,24.37
2022-07-28T01:30:46.892Z,22.10
2022-07-28T01:33:22.495Z,26.40
2022-07-28T01:36:10.165Z,27.48
2022-07-28T01:38:39.740Z,28.80
2022-07-28T01:41:15.305Z,25.60
2022-07-28T01:43:47.461Z,24.45
2022-07-28T01:46:17.958Z,24.08
2022-07-28T01:48:47.838Z,21.67
2022-07-28T01:51:17.178Z,11.98
2022-07-28T01:53:46.714Z,19.80
2022-07-28T01:56:16.154Z,24.70
2022-07-28T01:58:45.185Z,22.05
2022-07-28T02:01:14.256Z,14.90
2022-07-28T02:03:45.366Z,17.25
2022-07-28T02:06:15.899Z,18.30
2022-07-28T02:08:45.725Z,16.67
2022-07-28T02:11:32.359Z,16.25
2022-07-28T02:14:01.490Z,20.85
2022-07-28T02:16:30.842Z,17.58
2022-07-28T02:19:01.079Z,23.60
2022-07-28T02:21:31.851Z,22.85
2022-07-28T02:24:00.780Z,29.60
2022-07-28T02:26:35.906Z,20.67
2022-07-28T02:29:06.929Z,15.60
2022-07-28T02:31:44.579Z,20.42
2022-07-28T02:34:16.666Z,19.85
2022-07-28T02:36:58.057Z,19.95
2022-07-28T02:39:36.838Z,22.77
2022-07-28T02:42:10.080Z,26.10
2022-07-28T02:44:41.862Z,24.75
2022-07-28T02:47:15.886Z,23.42
2022-07-28T02:49:45.561Z,27.52
2022-07-28T02:52:16.338Z,28.98
2022-07-28T02:54:44.968Z,29.65
2022-07-28T02:57:15.764Z,29.02
2022-07-28T02:59:44.615Z,31.00
2022-07-28T03:02:13.648Z,32.45
2022-07-28T03:04:58.895Z,31.42
2022-07-28T03:07:32.661Z,33.08
2022-07-28T03:10:01.079Z,31.00
2022-07-28T03:12:31.099Z,39.60
2022-07-28T03:14:58.970Z,29.87
2022-07-28T03:17:27.660Z,24.02
2022-07-28T03:19:55.915Z,27.90
2022-07-28T03:22:23.753Z,26.12
2022-07-28T03:24:55.109Z,27.17
2022-07-28T03:27:26.057Z,25.37
2022-07-28T03:30:27.264Z,26.87
2022-07-28T03:33:03.465Z,22.92
2022-07-28T03:35:36.649Z,22.75
2022-07-28T03:38:17.984Z,23.83
2022-07-28T03:40:48.754Z,23.62
2022-07-28T03:43:22.052Z,24.50
2022-07-28T03:45:51.094Z,20.37
2022-07-28T03:48:19.052Z,16.98
2022-07-28T03:50:46.963Z,19.90
2022-07-28T03:53:21.982Z,16.02
2022-07-28T03:55:53.850Z,19.55
2022-07-28T03:58:28.717Z,18.87
2022-07-28T04:00:59.791Z,15.57
2022-07-28T04:03:42.745Z,19.73
2022-07-28T04:06:13.665Z,16.35
2022-07-28T04:08:42.666Z,17.27
2022-07-28T04:11:10.836Z,17.35
2022-07-28T04:13:38.945Z,18.55
2022-07-28T04:16:07.634Z,17.87
2022-07-28T04:18:36.024Z,17.75
2022-07-28T04:21:04.601Z,14.90
2022-07-28T04:23:33.225Z,16.27
2022-07-28T04:26:03.294Z,18.90
2022-07-28T04:28:50.035Z,14.07
2022-07-28T04:31:18.441Z,14.82
2022-07-28T04:33:47.155Z,22.58
2022-07-28T04:36:15.124Z,20.65
2022-07-28T04:38:43.427Z,16.80
2022-07-28T04:41:11.498Z,17.42
2022-07-28T04:43:39.412Z,15.20
2022-07-28T04:46:10.846Z,22.80
2022-07-28T04:48:41.279Z,15.63
2022-07-28T04:51:10.207Z,16.27
2022-07-28T04:53:38.228Z,18.33
2022-07-28T04:56:06.202Z,16.23
2022-07-28T04:58:34.514Z,15.57
2022-07-28T05:01:03.107Z,19.92
2022-07-28T05:03:36.033Z,14.05
2022-07-28T05:06:05.323Z,18.15
2022-07-28T05:08:33.297Z,14.30
2022-07-28T05:11:01.143Z,16.92
2022-07-28T05:13:34.085Z,13.82
2022-07-28T05:16:02.942Z,16.33
2022-07-28T05:18:31.406Z,14.95
2022-07-28T05:20:59.435Z,18.10
2022-07-28T05:23:27.641Z,14.77
2022-07-28T05:25:58.732Z,14.38
2022-07-28T05:28:26.650Z,12.48
2022-07-28T05:30:54.597Z,12.52
2022-07-28T05:33:24.560Z,14.35
2022-07-28T05:36:00.121Z,14.90
2022-07-28T05:38:29.238Z,24.27
2022-07-28T05:40:57.650Z,14.35
2022-07-28T05:43:26.905Z,12.93
2022-07-28T05:45:55.268Z,13.10
2022-07-28T05:48:23.434Z,11.50
2022-07-28T05:50:51.656Z,11.77
2022-07-28T05:53:21.460Z,10.23
2022-07-28T05:56:00.085Z,11.70
2022-07-28T05:58:31.096Z,14.80
2022-07-28T06:01:03.070Z,14.00
2022-07-28T06:03:36.998Z,9.85
2022-07-28T06:06:16.318Z,14.70
2022-07-28T06:08:46.988Z,9.48
2022-07-28T06:11:22.508Z,12.37
2022-07-28T06:13:52.964Z,10.95
2022-07-28T06:16:23.164Z,9.80
2022-07-28T06:18:52.233Z,10.02
2022-07-28T06:21:21.823Z,10.15
2022-07-28T06:23:52.652Z,10.30
2022-07-28T06:26:23.472Z,10.20
2022-07-28T06:28:51.976Z,9.60
2022-07-28T06:31:20.226Z,10.27
2022-07-28T06:33:48.143Z,10.30
2022-07-28T06:36:16.023Z,11.18
2022-07-28T06:38:44.256Z,9.73
2022-07-28T06:41:12.461Z,13.90
2022-07-28T06:43:40.341Z,9.60
2022-07-28T06:46:08.643Z,8.95
2022-07-28T06:51:25.295Z,8.75
2022-07-28T06:53:53.203Z,12.70
2022-07-28T06:56:21.587Z,9.88
2022-07-28T06:58:51.756Z,8.35
2022-07-28T07:01:19.660Z,9.25
2022-07-28T07:03:47.669Z,11.70
2022-07-28T07:06:16.168Z,8.25
2022-07-28T07:08:44.591Z,9.15
2022-07-28T07:11:12.565Z,9.45
2022-07-28T07:13:40.931Z,10.15
2022-07-28T07:16:09.018Z,12.13
2022-07-28T07:18:37.051Z,9.05
2022-07-28T07:21:05.400Z,9.25
2022-07-28T07:23:33.219Z,10.55
2022-07-28T07:26:01.081Z,11.23
2022-07-28T07:28:29.423Z,10.60
2022-07-28T07:30:57.340Z,9.55
2022-07-28T07:33:25.249Z,14.87
2022-07-28T07:35:53.521Z,9.75
2022-07-28T07:38:23.156Z,10.32
2022-07-28T07:40:54.509Z,9.93
2022-07-28T07:43:22.499Z,13.02
2022-07-28T07:45:50.365Z,12.73
2022-07-28T07:48:18.749Z,16.60
2022-07-28T07:50:51.863Z,8.95
2022-07-28T07:53:23.216Z,10.60
2022-07-28T07:55:54.137Z,10.77
2022-07-28T07:58:22.604Z,10.18
2022-07-28T08:00:51.419Z,10.43
2022-07-28T08:03:22.452Z,11.02
2022-07-28T08:05:51.997Z,9.23
2022-07-28T08:08:20.336Z,9.43
2022-07-28T08:10:51.388Z,10.40
2022-07-28T08:13:23.523Z,15.82
2022-07-28T08:15:54.332Z,38.67
2022-07-28T08:18:22.464Z,60.42
2022-07-28T08:20:50.450Z,31.08
2022-07-28T08:23:22.890Z,106.03
2022-07-28T08:25:55.830Z,18.02
2022-07-28T08:28:24.158Z,13.10
2022-07-28T08:30:52.126Z,12.50
2022-07-28T08:33:22.153Z,9.65
2022-07-28T08:35:50.895Z,13.15
2022-07-28T08:38:18.975Z,12.55
2022-07-28T08:40:50.463Z,11.15
2022-07-28T08:43:38.658Z,13.30
2022-07-28T08:46:07.254Z,9.63
2022-07-28T08:48:38.279Z,11.55
2022-07-28T08:51:08.524Z,10.87
2022-07-28T08:53:38.451Z,10.23
2022-07-28T08:56:14.555Z,9.10
2022-07-28T08:58:43.353Z,11.73
2022-07-28T09:01:11.800Z,11.65
2022-07-28T09:03:39.864Z,9.95
2022-07-28T09:06:08.643Z,10.65
2022-07-28T09:08:37.076Z,12.55
2022-07-28T09:11:06.625Z,8.88
2022-07-28T09:13:35.898Z,11.10
2022-07-28T09:16:07.111Z,7.65
2022-07-28T09:18:35.461Z,8.07
2022-07-28T09:21:03.398Z,12.18
2022-07-28T09:23:46.137Z,11.63
2022-07-28T09:26:14.920Z,9.20
2022-07-28T09:28:56.243Z,8.73
2022-07-28T09:31:26.497Z,8.32
2022-07-28T09:33:58.898Z,10.65
2022-07-28T09:36:28.369Z,7.25
2022-07-28T09:38:57.243Z,8.38
2022-07-28T09:41:25.825Z,9.40
2022-07-28T09:43:55.546Z,11.20
2022-07-28T09:46:29.740Z,8.52
2022-07-28T09:49:00.985Z,11.93
2022-07-28T09:51:31.558Z,8.55
2022-07-28T09:54:17.968Z,9.43
2022-07-28T09:56:46.622Z,9.55
2022-07-28T09:59:16.199Z,12.13
2022-07-28T10:01:52.954Z,8.80
2022-07-28T10:04:42.524Z,17.02
2022-07-28T10:07:14.547Z,10.18
2022-07-28T10:09:42.950Z,9.60
2022-07-28T10:12:22.095Z,8.65
2022-07-28T10:14:52.333Z,8.65
2022-07-28T10:17:23.895Z,9.27
2022-07-28T10:19:54.649Z,9.73
2022-07-28T10:22:25.791Z,9.82
2022-07-28T10:27:26.199Z,8.55
2022-07-28T10:30:01.725Z,9.63
2022-07-28T10:32:38.730Z,13.60
2022-07-28T10:35:12.327Z,10.68
2022-07-28T10:38:03.169Z,9.30
2022-07-28T10:40:45.945Z,8.27
2022-07-28T10:43:14.441Z,9.27
2022-07-28T10:46:04.596Z,8.15
2022-07-28T10:48:32.315Z,9.45
2022-07-28T10:51:01.859Z,10.50
2022-07-28T10:53:47.519Z,7.90
2022-07-28T10:56:39.055Z,10.05
2022-07-28T10:59:29.134Z,8.23
2022-07-28T11:01:57.622Z,9.98
2022-07-28T11:04:52.538Z,9.40
2022-07-28T11:07:22.596Z,9.85
2022-07-28T11:09:50.609Z,10.02
2022-07-28T11:12:51.060Z,13.45
2022-07-28T11:18:17.496Z,15.65
2022-07-28T11:20:58.653Z,12.33
2022-07-28T11:23:54.660Z,8.27
2022-07-28T11:26:24.248Z,8.43
2022-07-28T11:28:58.143Z,8.85
2022-07-28T11:31:44.975Z,13.40
2022-07-28T11:34:14.869Z,11.32
2022-07-28T11:37:03.239Z,9.68
2022-07-28T11:39:43.088Z,10.88
2022-07-28T11:42:36.125Z,9.95
2022-07-28T11:45:35.932Z,7.78
2022-07-28T11:48:21.940Z,10.77
2022-07-28T11:51:05.002Z,7.18
2022-07-28T11:53:53.848Z,9.15
2022-07-28T11:56:27.434Z,8.38
2022-07-28T11:59:00.661Z,6.43
2022-07-28T12:01:32.138Z,7.32
2022-07-28T12:06:37.039Z,7.15
2022-07-28T12:09:08.185Z,6.97
2022-07-28T12:11:38.370Z,5.78
2022-07-28T12:14:14.475Z,6.53
2022-07-28T12:16:45.015Z,5.78
2022-07-28T12:19:18.156Z,6.37
2022-07-28T12:21:49.652Z,7.07
2022-07-28T12:24:44.659Z,8.55
2022-07-28T12:27:14.778Z,6.53
2022-07-28T12:29:44.050Z,14.63
2022-07-28T12:32:17.865Z,8.23
2022-07-28T12:34:46.304Z,14.82
2022-07-28T12:37:14.735Z,7.78
2022-07-28T12:39:44.538Z,8.23
2022-07-28T12:42:13.602Z,7.30
2022-07-28T12:44:43.894Z,7.78
2022-07-28T12:47:14.116Z,7.18
2022-07-28T12:49:43.907Z,7.37
2022-07-28T12:52:23.071Z,7.28
2022-07-28T12:54:54.870Z,8.55
2022-07-28T12:57:50.340Z,12.18
2022-07-28T13:00:25.361Z,9.73
2022-07-28T13:02:56.549Z,10.38
2022-07-28T13:06:00.891Z,8.65
2022-07-28T13:08:38.356Z,8.25
2022-07-28T13:11:42.434Z,7.82
2022-07-28T13:14:03.571Z,7.93
2022-07-28T13:16:32.509Z,8.30
2022-07-28T13:19:04.722Z,8.00
2022-07-28T13:21:57.595Z,8.48
2022-07-28T13:24:28.959Z,7.60
2022-07-28T13:26:58.588Z,7.12
2022-07-28T13:29:26.908Z,7.37
2022-07-28T13:31:55.426Z,15.70
2022-07-28T13:34:23.879Z,10.52
2022-07-28T13:36:52.808Z,7.05
2022-07-28T13:39:20.969Z,8.18
2022-07-28T13:41:58.451Z,6.20
2022-07-28T13:44:28.244Z,6.65
2022-07-28T13:46:59.002Z,6.95
2022-07-28T13:49:32.197Z,7.00
2022-07-28T13:52:02.128Z,8.05
2022-07-28T13:54:30.168Z,8.32
2022-07-28T13:56:58.064Z,16.95
2022-07-28T13:59:26.672Z,8.05
2022-07-28T14:01:58.094Z,6.90
2022-07-28T14:04:26.645Z,8.90
2022-07-28T14:06:54.919Z,6.85
2022-07-28T14:09:23.414Z,6.82
2022-07-28T14:11:53.442Z,8.02
2022-07-28T14:14:25.760Z,6.72
2022-07-28T14:16:55.169Z,8.27
2022-07-28T14:19:39.187Z,9.35
2022-07-28T14:22:13.168Z,6.35
2022-07-28T14:24:46.991Z,7.78
2022-07-28T14:27:15.337Z,6.72
2022-07-28T14:29:43.657Z,6.95
2022-07-28T14:32:11.595Z,8.23
2022-07-28T14:34:40.199Z,9.60
2022-07-28T14:37:09.034Z,10.60
2022-07-28T14:39:38.573Z,8.70
2022-07-28T14:42:07.492Z,7.57
2022-07-28T14:44:35.735Z,7.87
2022-07-28T14:47:04.524Z,22.27
2022-07-28T14:49:32.837Z,32.10
2022-07-28T14:52:00.895Z,9.88
2022-07-28T14:54:28.962Z,10.57
2022-07-28T14:56:57.511Z,9.40
2022-07-28T14:59:25.468Z,10.82
2022-07-28T15:01:53.566Z,12.93
2022-07-28T15:04:22.726Z,9.82
2022-07-28T15:09:41.487Z,7.15
2022-07-28T15:12:10.961Z,7.87
2022-07-28T15:14:39.213Z,7.60
2022-07-28T15:17:07.334Z,6.30
2022-07-28T15:19:36.486Z,8.02
2022-07-28T15:22:07.511Z,7.43
2022-07-28T15:24:36.814Z,9.05
2022-07-28T15:27:05.315Z,7.75
2022-07-28T15:29:35.383Z,9.63
2022-07-28T15:32:04.834Z,8.18
2022-07-28T15:34:35.611Z,8.77
2022-07-28T15:37:06.293Z,8.15
2022-07-28T15:39:35.499Z,6.10
2022-07-28T15:42:03.536Z,10.30
2022-07-28T15:44:31.491Z,9.35
2022-07-28T15:46:59.726Z,8.05
2022-07-28T15:49:31.480Z,9.23
2022-07-28T15:52:00.893Z,9.45
2022-07-28T15:54:28.882Z,9.80
2022-07-28T15:56:56.805Z,9.63
2022-07-28T15:59:26.555Z,10.90
2022-07-28T16:02:17.805Z,7.50
2022-07-28T16:04:51.245Z,9.63
2022-07-28T16:07:23.763Z,9.07
2022-07-28T16:09:55.408Z,8.93
2022-07-28T16:12:25.736Z,11.30
2022-07-28T16:14:54.573Z,8.48
2022-07-28T16:17:23.666Z,9.48
2022-07-28T16:19:52.128Z,9.43
2022-07-28T16:22:21.340Z,12.63
2022-07-28T16:24:51.072Z,9.68
2022-07-28T16:27:19.149Z,8.07
2022-07-28T16:29:49.801Z,8.50
2022-07-28T16:32:36.332Z,9.07
2022-07-28T16:35:06.981Z,10.88
2022-07-28T16:40:21.712Z,8.27
2022-07-28T16:42:51.484Z,9.30
2022-07-28T16:45:19.844Z,9.45
2022-07-28T16:47:50.498Z,7.87
2022-07-28T16:50:19.269Z,11.12
2022-07-28T16:52:47.342Z,12.45
2022-07-28T16:55:20.077Z,14.57
2022-07-28T16:57:54.357Z,9.98
2022-07-28T17:00:25.948Z,10.85
2022-07-28T17:02:54.027Z,12.37
2022-07-28T17:05:41.344Z,13.93
2022-07-28T17:08:10.147Z,14.93
2022-07-28T17:10:38.485Z,11.63
2022-07-28T17:13:07.454Z,10.38
2022-07-28T17:15:39.559Z,10.88
2022-07-28T17:18:08.325Z,9.82
2022-07-28T17:20:40.040Z,12.10
2022-07-28T17:23:08.571Z,9.32
2022-07-28T17:28:25.882Z,14.25
2022-07-28T17:30:54.201Z,12.05
2022-07-28T17:33:22.349Z,11.93
2022-07-28T17:35:50.890Z,11.85
2022-07-28T17:38:28.275Z,11.85
2022-07-28T17:40:59.513Z,9.60
2022-07-28T17:43:28.500Z,10.18
2022-07-28T17:45:56.644Z,9.20
2022-07-28T17:48:25.054Z,8.55
2022-07-28T17:50:53.531Z,10.10
2022-07-28T17:53:21.391Z,11.05
2022-07-28T17:55:58.101Z,9.43
2022-07-28T17:58:29.684Z,11.52
2022-07-28T18:01:09.531Z,9.43
2022-07-28T18:03:58.444Z,10.75
2022-07-28T18:06:30.937Z,10.80
2022-07-28T18:09:06.284Z,14.02
2022-07-28T18:11:56.076Z,12.98
2022-07-28T18:14:28.347Z,11.73
2022-07-28T18:16:56.770Z,9.70
2022-07-28T18:19:25.081Z,16.85
2022-07-28T18:21:53.657Z,12.15
2022-07-28T18:24:22.680Z,14.07
2022-07-28T18:26:51.905Z,15.38
2022-07-28T18:29:21.927Z,12.45
2022-07-28T18:31:52.403Z,13.80
2022-07-28T18:34:24.650Z,11.05
2022-07-28T18:36:54.733Z,14.65
2022-07-28T18:39:23.187Z,11.43
2022-07-28T18:41:56.325Z,15.30
2022-07-28T18:44:24.891Z,16.52
2022-07-28T18:46:57.558Z,17.30
2022-07-28T18:49:26.031Z,15.52
2022-07-28T18:51:55.278Z,14.60
2022-07-28T18:54:28.001Z,14.27
2022-07-28T18:57:15.266Z,14.40
2022-07-28T18:59:47.640Z,15.18
2022-07-28T19:02:18.808Z,12.32
2022-07-28T19:04:47.487Z,13.80
2022-07-28T19:07:16.276Z,10.45
2022-07-28T19:09:44.682Z,12.05
2022-07-28T19:12:12.646Z,11.15
2022-07-28T19:14:41.250Z,14.18
2022-07-28T19:17:10.144Z,13.10
2022-07-28T19:19:38.506Z,11.90
2022-07-28T19:22:10.143Z,12.40
2022-07-28T19:24:38.542Z,14.00
2022-07-28T19:27:07.485Z,10.65
2022-07-28T19:29:36.482Z,12.68
2022-07-28T19:32:06.216Z,10.82
2022-07-28T19:34:35.127Z,11.35
2022-07-28T19:37:03.408Z,10.05
2022-07-28T19:39:34.748Z,13.45
2022-07-28T19:42:02.668Z,10.57
2022-07-28T19:44:30.553Z,9.50
2022-07-28T19:47:01.047Z,9.77
2022-07-28T19:49:29.603Z,11.70
2022-07-28T19:51:57.540Z,10.80
2022-07-28T19:54:25.961Z,10.00
2022-07-28T19:56:54.036Z,8.65
2022-07-28T19:59:23.503Z,13.48
2022-07-28T20:01:52.070Z,9.10
2022-07-28T20:04:20.724Z,6.03
2022-07-28T20:06:54.884Z,7.30
2022-07-28T20:09:24.293Z,10.20
2022-07-28T20:11:52.547Z,5.57
2022-07-28T20:14:20.502Z,4.80
2022-07-28T20:16:48.934Z,4.97
2022-07-28T20:19:17.395Z,5.85
2022-07-28T20:21:45.306Z,5.55
2022-07-28T20:24:13.960Z,5.00
2022-07-28T20:26:42.541Z,7.37
2022-07-28T20:29:10.453Z,6.30
2022-07-28T20:31:38.957Z,4.75
2022-07-28T20:34:07.239Z,4.85
2022-07-28T20:36:35.215Z,4.45
2022-07-28T20:41:49.289Z,8.52
2022-07-28T20:44:33.048Z,7.25
2022-07-28T20:47:02.700Z,10.13
2022-07-28T20:49:31.062Z,4.37
2022-07-28T20:51:59.218Z,4.97
2022-07-28T20:54:27.240Z,5.97
2022-07-28T20:56:55.711Z,7.30
2022-07-28T20:59:27.777Z,4.90
2022-07-28T21:04:26.678Z,5.07
2022-07-28T21:07:02.151Z,4.70
2022-07-28T21:09:32.252Z,5.65
2022-07-28T21:12:00.323Z,8.20
2022-07-28T21:14:28.406Z,6.40
2022-07-28T21:16:57.009Z,6.07
2022-07-28T21:19:25.392Z,5.00
2022-07-28T21:21:55.722Z,6.37
2022-07-28T21:24:24.172Z,4.97
2022-07-28T21:26:53.770Z,5.80
2022-07-28T21:32:04.413Z,5.50
2022-07-28T21:34:35.220Z,5.22
2022-07-28T21:37:05.155Z,4.90
2022-07-28T21:39:34.093Z,5.80
2022-07-28T21:42:05.708Z,6.50
2022-07-28T21:44:36.297Z,6.55
2022-07-28T21:47:04.549Z,8.68
2022-07-28T21:49:32.818Z,4.20
2022-07-28T21:52:01.254Z,4.85
2022-07-28T21:54:29.152Z,4.12
2022-07-28T21:56:57.159Z,3.67
2022-07-28T21:59:25.629Z,6.95
2022-07-28T22:01:53.728Z,8.05
2022-07-28T22:04:22.329Z,6.60
2022-07-28T22:06:50.511Z,4.32
2022-07-28T22:09:18.454Z,6.87
2022-07-28T22:11:46.898Z,6.40
2022-07-28T22:14:17.982Z,5.47
2022-07-28T22:16:46.866Z,5.68
2022-07-28T22:19:14.786Z,3.40
2022-07-28T22:21:42.678Z,5.47
2022-07-28T22:24:11.009Z,4.37
2022-07-28T22:26:38.841Z,2.87
2022-07-28T22:29:06.702Z,4.87
2022-07-28T22:31:35.101Z,3.72
2022-07-28T22:34:03.131Z,3.03
2022-07-28T22:36:31.074Z,2.85
2022-07-28T22:38:59.532Z,5.60
2022-07-28T22:41:27.542Z,1.98
2022-07-28T22:43:55.579Z,3.15
2022-07-28T22:46:24.012Z,2.55
2022-07-28T22:48:52.157Z,3.05
2022-07-28T22:51:20.124Z,2.67
2022-07-28T22:53:48.570Z,2.28
2022-07-28T22:56:23.428Z,3.30
2022-07-28T22:58:51.861Z,6.05
2022-07-28T23:01:19.856Z,2.58
2022-07-28T23:03:50.521Z,2.45
2022-07-28T23:06:19.167Z,4.80
2022-07-28T23:08:47.171Z,4.37
2022-07-28T23:11:15.025Z,2.70
2022-07-28T23:13:43.337Z,2.83
2022-07-28T23:16:13.810Z,4.68
2022-07-28T23:18:43.262Z,3.62
2022-07-28T23:21:12.584Z,4.43
2022-07-28T23:23:40.527Z,1.92
2022-07-28T23:26:08.452Z,3.17
2022-07-28T23:28:36.769Z,2.42
2022-07-28T23:31:05.446Z,5.75
2022-07-28T23:33:55.118Z,3.22
2022-07-28T23:36:26.817Z,3.60
2022-07-28T23:38:59.863Z,3.45
2022-07-28T23:41:28.763Z,3.53
2022-07-28T23:43:56.752Z,3.33
2022-07-28T23:46:25.007Z,4.72
2022-07-28T23:48:53.571Z,3.15
2022-07-28T23:51:38.373Z,3.45
2022-07-28T23:54:11.082Z,4.85
2022-07-28T23:56:43.283Z,5.78
2022-07-28T23:59:14.034Z,3.62
